M I D A S
Marine Information and Data Acquisition System
Tripno 2030 of the Zeeleeuw from 2011-01-13 07:54:20 to 2011-01-13 14:47:15
Back to CruiseResearch ActivitiesStationsMapUnderway DataData graphs

EquipmentUnitsComments
TimeDGPSUTC
LatitudeDGPSDM.mWGS84
LongitudeDGPSDM.mWGS84
SpeedMeteo Stationm/sRelative wind speed
DirectionMeteo StationdegRelative wind direction
TemperatureMeteo Stationdeg CelciusAir temperature
PressureMeteo StationPaAtmospheric pressure
HumidityMeteo Station%Relative humidity
Missing or incorrect values are displayed as -999
Metereological data collected by the RV Zeeleeuw from 2011-01-13 07:46:14 to 2011-01-13 14:51:57
                                                                                    Next 1000 lines
Time Latitude Longitude Speed Direction Temperature Pressure Humidity
2011-01-13 07:46:24 51°13.662 2°55.962 9.8 37 10.5 100970 52
2011-01-13 07:46:29 51°13.662 2°55.962 7.5 41 10.5 100970 53
2011-01-13 07:46:34 51°13.662 2°55.962 11.3 42 10.5 100970 53
2011-01-13 07:46:39 51°13.662 2°55.962 8.8 32 10.5 100970 52
2011-01-13 07:46:44 51°13.662 2°55.962 7.5 58 10.5 100970 52
2011-01-13 07:46:48 51°13.662 2°55.962 12 28 10.5 100970 53
2011-01-13 07:46:54 51°13.662 2°55.962 10.8 37 10.5 100970 53
2011-01-13 07:47:00 51°13.662 2°55.962 7.3 37 10.5 100970 53
2011-01-13 07:47:04 51°13.662 2°55.961 8.5 33 10.5 100970 53
2011-01-13 07:47:09 51°13.661 2°55.961 7.5 25 10.5 100960 54
2011-01-13 07:47:14 51°13.661 2°55.961 6.4 38 10.5 100960 54
2011-01-13 07:47:19 51°13.661 2°55.961 7.7 25 10.5 100950 54
2011-01-13 07:47:24 51°13.661 2°55.961 9.3 34 10.5 100950 54
2011-01-13 07:47:29 51°13.661 2°55.962 6.7 29 10.5 100970 53
2011-01-13 07:47:33 51°13.662 2°55.962 9.9 29 10.5 100970 53
2011-01-13 07:47:38 51°13.661 2°55.961 8.9 31 10.5 100970 51
2011-01-13 07:47:43 51°13.661 2°55.962 4.7 29 10.5 100970 51
2011-01-13 07:47:48 51°13.661 2°55.962 10 43 10.5 100960 52
2011-01-13 07:47:53 51°13.661 2°55.962 8.9 33 10.5 100960 52
2011-01-13 07:47:58 51°13.661 2°55.961 7.5 36 10.5 100970 54
2011-01-13 07:48:03 51°13.661 2°55.962 8.4 35 10.5 100970 54
2011-01-13 07:48:09 51°13.662 2°55.962 6.6 23 10.5 100980 52
2011-01-13 07:48:13 51°13.662 2°55.962 6.2 35 10.5 100980 52
2011-01-13 07:48:19 51°13.662 2°55.962 13.1 38 10.5 100970 52
2011-01-13 07:48:25 51°13.662 2°55.962 9.7 41 10.5 100970 52
2011-01-13 07:48:30 51°13.662 2°55.962 11.6 37 10.5 100970 51
2011-01-13 07:48:34 51°13.662 2°55.962 9.1 39 10.5 100970 51
2011-01-13 07:48:39 51°13.662 2°55.962 8.7 41 10.5 100960 54
2011-01-13 07:48:44 51°13.662 2°55.963 4.8 19 10.5 100960 54
2011-01-13 07:48:49 51°13.662 2°55.963 3.9 24 10.5 100950 54
2011-01-13 07:48:54 51°13.662 2°55.963 2 79 10.5 100950 54
2011-01-13 07:48:58 51°13.662 2°55.963 7.2 21 10.5 100960 53
2011-01-13 07:49:04 51°13.662 2°55.963 4.3 37 10.5 100960 53
2011-01-13 07:49:09 51°13.662 2°55.963 8.7 39 10.5 100980 51
2011-01-13 07:49:15 51°13.662 2°55.963 9.8 29 10.5 100980 51
2011-01-13 07:49:19 51°13.662 2°55.963 11.4 40 10.5 100980 51
2011-01-13 07:49:24 51°13.662 2°55.963 10.5 41 10.5 100980 51
2011-01-13 07:49:28 51°13.662 2°55.963 9.2 34 10.5 100970 52
2011-01-13 07:49:34 51°13.662 2°55.963 7.4 38 10.5 100970 52
2011-01-13 07:49:39 51°13.662 2°55.963 6.5 36 10.5 100970 52
2011-01-13 07:49:44 51°13.662 2°55.963 9.2 39 10.5 100970 52
2011-01-13 07:49:48 51°13.662 2°55.963 9.6 35 10.5 100970 54
2011-01-13 07:49:53 51°13.662 2°55.963 10.1 41 10.5 100970 54
2011-01-13 07:49:58 51°13.662 2°55.963 10.4 41 10.5 100970 54
2011-01-13 07:50:03 51°13.662 2°55.963 11.5 33 10.5 100970 54
2011-01-13 07:50:08 51°13.662 2°55.963 9.1 34 10.5 100960 54
2011-01-13 07:50:13 51°13.662 2°55.963 10.2 78 10.5 100960 54
2011-01-13 07:50:18 51°13.662 2°55.963 9.8 28 10.5 100970 53
2011-01-13 07:50:23 51°13.662 2°55.963 8.2 33 10.5 100970 53
2011-01-13 07:50:28 51°13.662 2°55.963 8.8 34 10.5 100960 54
2011-01-13 07:50:33 51°13.662 2°55.963 6.7 41 10.5 100960 54
2011-01-13 07:50:38 51°13.662 2°55.963 8.3 27 10.5 100950 54
2011-01-13 07:50:43 51°13.662 2°55.963 7.1 26 10.5 100950 54
2011-01-13 07:50:50 51°13.662 2°55.963 8.3 41 10.5 100980 52
2011-01-13 07:50:54 51°13.662 2°55.963 3.8 17 10.5 100980 52
2011-01-13 07:50:59 51°13.662 2°55.963 4.8 43 10.5 100970 52
2011-01-13 07:51:05 51°13.662 2°55.963 5.8 31 10.5 100970 52
2011-01-13 07:51:10 51°13.662 2°55.962 3.9 39 10.5 100980 52
2011-01-13 07:51:15 51°13.662 2°55.962 7.3 34 10.5 100980 52
2011-01-13 07:51:20 51°13.662 2°55.962 5.6 40 10.5 100980 52
2011-01-13 07:51:24 51°13.662 2°55.963 7.8 34 10.5 100980 52
2011-01-13 07:51:30 51°13.662 2°55.963 5.8 39 10.4 100980 51
2011-01-13 07:51:35 51°13.662 2°55.963 6.7 37 10.4 100980 51
2011-01-13 07:51:40 51°13.662 2°55.962 6.9 35 10.4 100970 53
2011-01-13 07:51:44 51°13.662 2°55.962 7.9 33 10.4 100970 53
2011-01-13 07:51:49 51°13.662 2°55.962 9.5 36 10.4 100980 53
2011-01-13 07:51:54 51°13.662 2°55.963 8.3 31 10.4 100980 53
2011-01-13 07:51:59 51°13.662 2°55.962 5.2 38 10.4 100970 53
2011-01-13 07:52:04 51°13.662 2°55.963 7.2 29 10.4 100970 53
2011-01-13 07:52:08 51°13.662 2°55.963 10.8 22 10.4 100980 54
2011-01-13 07:52:13 51°13.662 2°55.963 12.6 36 10.4 100980 54
2011-01-13 07:52:19 51°13.662 2°55.963 12.1 43 10.4 100980 52
2011-01-13 07:52:25 51°13.662 2°55.963 8.8 38 10.4 100980 52
2011-01-13 07:52:30 51°13.662 2°55.962 7.8 38 10.4 100960 53
2011-01-13 07:52:34 51°13.662 2°55.962 8 27 10.4 100960 53
2011-01-13 07:52:40 51°13.662 2°55.962 7.7 36 10.4 100970 53
2011-01-13 07:52:46 51°13.662 2°55.962 9.1 36 10.4 100970 53
2011-01-13 07:52:50 51°13.662 2°55.962 8.6 40 10.4 100970 54
2011-01-13 07:52:55 51°13.662 2°55.962 12.9 42 10.4 100970 54
2011-01-13 07:52:59 51°13.662 2°55.962 12.3 41 10.5 100970 53
2011-01-13 07:53:05 51°13.662 2°55.962 14.9 32 10.5 100970 53
2011-01-13 07:53:10 51°13.662 2°55.963 12.6 35 10.4 100980 53
2011-01-13 07:53:15 51°13.662 2°55.963 11.6 28 10.4 100980 53
2011-01-13 07:53:19 51°13.662 2°55.963 7.6 32 10.4 100980 53
2011-01-13 07:53:24 51°13.663 2°55.963 10 37 10.4 100980 53
2011-01-13 07:53:30 51°13.662 2°55.963 11.5 32 10.5 100970 53
2011-01-13 07:53:35 51°13.662 2°55.963 10.2 33 10.5 100970 53
2011-01-13 07:53:39 51°13.662 2°55.963 8.3 39 10.4 100970 53
2011-01-13 07:53:44 51°13.662 2°55.963 6.3 76 10.4 100970 53
2011-01-13 07:53:49 51°13.662 2°55.963 9.4 31 10.4 100980 53
2011-01-13 07:53:55 51°13.662 2°55.963 10 39 10.4 100980 53
2011-01-13 07:53:59 51°13.662 2°55.962 9.3 28 10.4 100990 52
2011-01-13 07:54:05 51°13.662 2°55.962 7 16 10.4 100990 52
2011-01-13 07:54:10 51°13.662 2°55.962 6.7 25 10.4 100980 54
2011-01-13 07:54:16 51°13.662 2°55.962 6.1 40 10.4 100980 54
2011-01-13 07:54:20 51°13.662 2°55.962 7 42 10.4 100980 53
2011-01-13 07:54:25 51°13.662 2°55.962 6.2 39 10.4 100980 53
2011-01-13 07:54:30 51°13.662 2°55.962 13.3 43 10.4 100980 53
2011-01-13 07:54:35 51°13.662 2°55.962 11.4 34 10.4 100980 53
2011-01-13 07:54:41 51°13.662 2°55.962 8.7 43 10.4 100990 54
2011-01-13 07:54:44 51°13.662 2°55.962 7.1 24 10.4 100990 54
2011-01-13 07:54:51 51°13.662 2°55.962 11.1 26 10.4 100980 53
2011-01-13 07:54:55 51°13.662 2°55.962 11.6 35 10.4 100980 53
2011-01-13 07:55:00 51°13.662 2°55.962 12.5 28 10.4 100980 53
2011-01-13 07:55:05 51°13.662 2°55.962 10.8 37 10.4 100980 53
2011-01-13 07:55:09 51°13.662 2°55.962 12.6 31 10.4 100980 54
2011-01-13 07:55:15 51°13.662 2°55.962 11.7 33 10.4 100980 54
2011-01-13 07:55:20 51°13.662 2°55.962 10.6 34 10.4 100980 54
2011-01-13 07:55:25 51°13.662 2°55.962 9.9 39 10.4 100980 54
2011-01-13 07:55:30 51°13.662 2°55.962 10.8 32 10.4 100970 54
2011-01-13 07:55:34 51°13.662 2°55.962 7.4 32 10.4 100970 54
2011-01-13 07:55:39 51°13.662 2°55.962 9.2 30 10.4 100970 53
2011-01-13 07:55:44 51°13.662 2°55.962 7.4 30 10.4 100970 53
2011-01-13 07:55:50 51°13.662 2°55.962 5.2 40 10.4 100970 52
2011-01-13 07:55:54 51°13.662 2°55.962 7.5 78 10.4 100970 52
2011-01-13 07:55:59 51°13.662 2°55.962 9.6 33 10.4 100980 54
2011-01-13 07:56:05 51°13.662 2°55.962 6.9 34 10.4 100980 54
2011-01-13 07:56:10 51°13.662 2°55.962 13.5 34 10.4 100990 52
2011-01-13 07:56:14 51°13.662 2°55.962 10.8 32 10.4 100990 52
2011-01-13 07:56:20 51°13.662 2°55.962 10.3 38 10.4 100980 54
2011-01-13 07:56:25 51°13.662 2°55.962 8.3 41 10.4 100980 54
2011-01-13 07:56:30 51°13.662 2°55.962 7.1 37 10.4 100980 52
2011-01-13 07:56:35 51°13.662 2°55.962 8.1 28 10.4 100980 52
2011-01-13 07:56:40 51°13.662 2°55.962 6 31 10.5 100970 52
2011-01-13 07:56:45 51°13.662 2°55.962 6.6 45 10.5 100970 52
2011-01-13 07:56:50 51°13.662 2°55.962 11.2 36 10.5 100980 54
2011-01-13 07:56:55 51°13.662 2°55.962 14 34 10.5 100980 54
2011-01-13 07:57:00 51°13.662 2°55.962 11.4 35 10.5 100990 51
2011-01-13 07:57:05 51°13.662 2°55.962 7.5 33 10.5 100990 51
2011-01-13 07:57:10 51°13.662 2°55.962 8.9 36 10.5 100980 52
2011-01-13 07:57:15 51°13.662 2°55.962 11.8 50 10.5 100980 52
2011-01-13 07:57:19 51°13.662 2°55.962 6.1 35 10.5 100990 53
2011-01-13 07:57:25 51°13.662 2°55.962 6.8 44 10.5 100990 53
2011-01-13 07:57:30 51°13.661 2°55.962 6.2 36 10.5 100980 53
2011-01-13 07:57:35 51°13.661 2°55.962 5.5 34 10.5 100980 53
2011-01-13 07:57:39 51°13.661 2°55.961 6.9 36 10.4 100980 52
2011-01-13 07:57:45 51°13.661 2°55.961 7 41 10.4 100980 52
2011-01-13 07:57:50 51°13.661 2°55.961 5.8 42 10.4 100990 54
2011-01-13 07:57:55 51°13.661 2°55.961 6.2 40 10.4 100990 54
2011-01-13 07:58:00 51°13.661 2°55.962 9.4 22 10.4 100980 53
2011-01-13 07:58:05 51°13.661 2°55.962 8 81 10.4 100980 53
2011-01-13 07:58:11 51°13.661 2°55.962 7.2 23 10.4 100980 53
2011-01-13 07:58:15 51°13.661 2°55.961 9.4 56 10.4 100980 53
2011-01-13 07:58:21 51°13.661 2°55.961 8.9 22 10.4 100980 52
2011-01-13 07:58:25 51°13.661 2°55.961 8.3 80 10.4 100980 52
2011-01-13 07:58:31 51°13.661 2°55.961 8.4 22 10.4 100990 52
2011-01-13 07:58:35 51°13.661 2°55.96 10.3 55 10.4 100990 52
2011-01-13 07:58:40 51°13.662 2°55.958 7.9 36 10.4 100990 54
2011-01-13 07:58:45 51°13.663 2°55.954 6.3 37 10.4 100990 54
2011-01-13 07:58:50 51°13.665 2°55.949 9.5 44 10.4 101000 54
2011-01-13 07:58:55 51°13.667 2°55.943 7.2 37 10.4 101000 54
2011-01-13 07:59:00 51°13.669 2°55.936 11.9 25 10.4 100990 53
2011-01-13 07:59:06 51°13.671 2°55.927 11.8 78 10.4 100990 53
2011-01-13 07:59:11 51°13.673 2°55.919 11.4 22 10.4 100990 54
2011-01-13 07:59:15 51°13.675 2°55.912 10.7 44 10.4 100990 54
2011-01-13 07:59:21 51°13.678 2°55.902 13.1 43 10.4 100980 52
2011-01-13 07:59:26 51°13.68 2°55.893 8.5 57 10.4 100980 52
2011-01-13 07:59:31 51°13.682 2°55.883 9.3 25 10.4 100990 54
2011-01-13 07:59:35 51°13.683 2°55.876 8.8 74 10.4 100990 54
2011-01-13 07:59:41 51°13.685 2°55.865 12.4 38 10.5 100990 53
2011-01-13 07:59:46 51°13.687 2°55.856 9.5 39 10.5 100990 53
2011-01-13 07:59:51 51°13.689 2°55.847 11.3 41 10.5 100980 52
2011-01-13 07:59:55 51°13.69 2°55.84 8.2 54 10.5 100980 52
2011-01-13 08:00:00 51°13.691 2°55.831 6.1 19 10.5 100990 54
2011-01-13 08:00:06 51°13.692 2°55.821 4.2 50 10.5 100990 54
2011-01-13 08:00:11 51°13.693 2°55.813 5.7 25 10.4 100990 52
2011-01-13 08:00:15 51°13.694 2°55.806 5.1 75 10.4 100990 52
2011-01-13 08:00:20 51°13.695 2°55.798 4.9 23 10.4 100980 54
2011-01-13 08:00:26 51°13.695 2°55.789 5.5 74 10.4 100980 54
2011-01-13 08:00:31 51°13.695 2°55.781 6.4 23 10.5 101000 52
2011-01-13 08:00:35 51°13.695 2°55.775 5.4 54 10.5 101000 52
2011-01-13 08:00:40 51°13.695 2°55.768 6 20 10.5 100990 51
2011-01-13 08:00:46 51°13.695 2°55.76 6.6 76 10.5 100990 51
2011-01-13 08:00:51 51°13.695 2°55.754 4.7 20 10.5 100990 54
2011-01-13 08:00:55 51°13.694 2°55.749 1.7 56 10.5 100990 54
2011-01-13 08:01:00 51°13.694 2°55.744 2.4 22 10.5 101000 54
2011-01-13 08:01:05 51°13.694 2°55.74 10.6 75 10.5 101000 54
2011-01-13 08:01:10 51°13.694 2°55.737 7.2 21 10.5 100980 52
2011-01-13 08:01:15 51°13.694 2°55.736 4 75 10.5 100980 52
2011-01-13 08:01:19 51°13.695 2°55.735 6.1 21 10.5 100990 54
2011-01-13 08:01:24 51°13.695 2°55.735 3.9 76 10.5 100990 54
2011-01-13 08:01:29 51°13.696 2°55.735 3.5 27 10.5 101010 52
2011-01-13 08:01:34 51°13.697 2°55.735 4 76 10.5 101010 52
2011-01-13 08:01:39 51°13.698 2°55.735 4.7 19 10.5 100990 51
2011-01-13 08:01:44 51°13.7 2°55.735 5.6 309 10.5 100990 51
2011-01-13 08:01:49 51°13.701 2°55.735 7.1 265 10.5 100990 53
2011-01-13 08:01:54 51°13.703 2°55.735 6.5 80 10.5 100990 53
2011-01-13 08:01:58 51°13.704 2°55.735 7 270 10.5 101000 52
2011-01-13 08:02:03 51°13.707 2°55.735 4.2 306 10.5 101000 52
2011-01-13 08:02:08 51°13.709 2°55.734 5.9 256 10.5 100990 54
2011-01-13 08:02:13 51°13.712 2°55.734 3.3 283 10.5 100990 54
2011-01-13 08:02:18 51°13.716 2°55.733 7.2 258 10.5 101010 54
2011-01-13 08:02:23 51°13.72 2°55.731 5.3 303 10.5 101010 54
2011-01-13 08:02:27 51°13.723 2°55.728 12.2 254 10.5 100990 55
2011-01-13 08:02:32 51°13.728 2°55.725 10.8 279 10.5 100990 55
2011-01-13 08:02:37 51°13.734 2°55.721 6.3 262 10.5 100990 54
2011-01-13 08:02:42 51°13.739 2°55.717 6.7 286 10.5 100990 54
2011-01-13 08:02:47 51°13.745 2°55.712 6.3 257 10.4 101000 54
2011-01-13 08:02:52 51°13.752 2°55.706 6.7 285 10.4 101000 54
2011-01-13 08:02:57 51°13.759 2°55.698 6.6 22 10.4 101020 54
2011-01-13 08:03:02 51°13.767 2°55.691 3.9 281 10.4 101020 54
2011-01-13 08:03:07 51°13.776 2°55.683 5.9 245 10.4 100990 52
2011-01-13 08:03:11 51°13.782 2°55.677 6.7 304 10.4 100990 52
2011-01-13 08:03:16 51°13.792 2°55.668 5.1 24 10.4 100980 52
2011-01-13 08:03:22 51°13.803 2°55.657 4.7 278 10.4 100980 52
2011-01-13 08:03:27 51°13.813 2°55.649 3.5 318 10.4 100990 51
2011-01-13 08:03:31 51°13.822 2°55.642 5.3 284 10.4 100990 51
2011-01-13 08:03:36 51°13.833 2°55.633 9.5 29 10.4 100990 51
2011-01-13 08:03:42 51°13.846 2°55.623 11.7 282 10.4 100990 51
2011-01-13 08:03:47 51°13.857 2°55.614 5.3 315 10.4 100990 51
2011-01-13 08:03:52 51°13.869 2°55.605 3.6 283 10.4 100990 51
2011-01-13 08:03:57 51°13.881 2°55.596 10.9 23 10.4 100990 53
2011-01-13 08:04:02 51°13.893 2°55.587 7.2 309 10.4 100990 53
2011-01-13 08:04:07 51°13.905 2°55.578 5.7 21 10.4 100970 51
2011-01-13 08:04:12 51°13.917 2°55.569 6.6 306 10.4 100970 51
2011-01-13 08:04:16 51°13.927 2°55.562 7.5 28 10.4 100970 52
2011-01-13 08:04:22 51°13.942 2°55.551 6.7 280 10.4 100970 52
2011-01-13 08:04:27 51°13.954 2°55.541 8.5 244 10.4 100980 54
2011-01-13 08:04:33 51°13.97 2°55.53 5.6 308 10.4 100980 54
2011-01-13 08:04:37 51°13.98 2°55.522 8.5 250 10.4 100990 53
2011-01-13 08:04:42 51°13.992 2°55.512 4.2 278 10.4 100990 53
2011-01-13 08:04:47 51°14.005 2°55.503 7 26 10.4 100970 53
2011-01-13 08:04:52 51°14.017 2°55.493 10.6 307 10.4 100970 53
2011-01-13 08:04:57 51°14.03 2°55.483 9.5 22 10.3 100980 51
2011-01-13 08:05:02 51°14.042 2°55.474 7.8 284 10.3 100980 51
2011-01-13 08:05:08 51°14.058 2°55.464 8.1 256 10.3 100980 53
2011-01-13 08:05:13 51°14.071 2°55.455 7.6 310 10.3 100980 53
2011-01-13 08:05:17 51°14.081 2°55.448 7.8 248 10.3 100980 54
2011-01-13 08:05:22 51°14.094 2°55.44 5.1 285 10.3 100980 54
2011-01-13 08:05:27 51°14.107 2°55.431 6.2 321 10.3 100970 51
2011-01-13 08:05:33 51°14.123 2°55.421 5.1 303 10.3 100970 51
2011-01-13 08:05:38 51°14.136 2°55.412 7.6 28 10.2 100980 52
2011-01-13 08:05:43 51°14.149 2°55.403 12.2 279 10.2 100980 52
2011-01-13 08:05:49 51°14.165 2°55.392 5.4 23 10.2 100970 54
2011-01-13 08:05:54 51°14.178 2°55.383 15.1 278 10.2 100970 54
2011-01-13 08:06:00 51°14.193 2°55.372 13.6 248 10.2 100980 53
2011-01-13 08:06:05 51°14.206 2°55.362 13.8 278 10.2 100980 53
2011-01-13 08:06:10 51°14.219 2°55.352 7.7 248 10.1 100970 53
2011-01-13 08:06:16 51°14.234 2°55.339 12.3 286 10.1 100970 53
2011-01-13 08:06:21 51°14.247 2°55.328 13.3 23 10.1 100970 53
2011-01-13 08:06:25 51°14.257 2°55.319 18.2 308 10.1 100970 53
2011-01-13 08:06:30 51°14.27 2°55.307 18.2 19 10.1 100950 52
2011-01-13 08:06:36 51°14.284 2°55.292 13.5 280 10.1 100950 52
2011-01-13 08:06:41 51°14.297 2°55.28 10.2 26 10 100970 52
2011-01-13 08:06:45 51°14.306 2°55.27 12.9 308 10 100970 52
2011-01-13 08:06:51 51°14.321 2°55.255 14.4 24 9.9 100960 52
2011-01-13 08:06:56 51°14.334 2°55.242 12.2 280 9.9 100960 52
2011-01-13 08:07:01 51°14.347 2°55.229 9.6 23 9.9 100960 51
2011-01-13 08:07:05 51°14.357 2°55.219 13 279 9.9 100960 51
2011-01-13 08:07:10 51°14.37 2°55.205 16.8 23 9.8 100960 52
2011-01-13 08:07:15 51°14.382 2°55.191 15.9 309 9.8 100960 52
2011-01-13 08:07:21 51°14.398 2°55.175 16 24 9.7 100940 52
2011-01-13 08:07:25 51°14.409 2°55.164 15.3 285 9.7 100940 52
2011-01-13 08:07:31 51°14.425 2°55.149 17.4 22 9.7 100940 52
2011-01-13 08:07:36 51°14.439 2°55.137 16.8 305 9.7 100940 52
2011-01-13 08:07:41 51°14.454 2°55.124 17.5 23 9.6 100920 51
2011-01-13 08:07:45 51°14.465 2°55.114 15 284 9.6 100920 51
2011-01-13 08:07:50 51°14.479 2°55.1 15 25 9.6 100920 52
2011-01-13 08:07:55 51°14.493 2°55.085 16.6 303 9.6 100920 52
2011-01-13 08:08:00 51°14.507 2°55.069 15 24 9.5 100920 52
2011-01-13 08:08:05 51°14.521 2°55.054 16.9 284 9.5 100920 52
2011-01-13 08:08:09 51°14.532 2°55.041 19.1 24 9.5 100910 51
2011-01-13 08:08:14 51°14.547 2°55.026 16.5 281 9.5 100910 51
2011-01-13 08:08:20 51°14.563 2°55.007 17 22 9.4 100910 51
2011-01-13 08:08:25 51°14.576 2°54.992 16.7 286 9.4 100910 51
2011-01-13 08:08:29 51°14.586 2°54.98 14.8 24 9.4 100920 52
2011-01-13 08:08:34 51°14.599 2°54.965 15.5 306 9.4 100920 52
2011-01-13 08:08:39 51°14.612 2°54.95 17.2 22 9.4 100910 51
2011-01-13 08:08:44 51°14.624 2°54.936 14.8 281 9.4 100910 51
2011-01-13 08:08:49 51°14.637 2°54.922 15.4 25 9.3 100900 52
2011-01-13 08:08:53 51°14.648 2°54.912 18.3 303 9.3 100900 52
2011-01-13 08:08:58 51°14.66 2°54.899 13.8 26 9.3 100910 51
2011-01-13 08:09:03 51°14.672 2°54.886 16 305 9.3 100910 51
2011-01-13 08:09:09 51°14.688 2°54.87 19.6 24 9.3 100910 52
2011-01-13 08:09:13 51°14.698 2°54.86 15.8 306 9.3 100910 52
2011-01-13 08:09:17 51°14.708 2°54.849 16.1 23 9.3 100910 51
2011-01-13 08:09:22 51°14.721 2°54.836 15.2 282 9.3 100910 51
2011-01-13 08:09:29 51°14.739 2°54.817 16.5 24 9.2 100910 51
2011-01-13 08:09:34 51°14.753 2°54.803 23 305 9.2 100910 51
2011-01-13 08:09:38 51°14.764 2°54.791 15.4 20 9.2 100910 51
2011-01-13 08:09:44 51°14.78 2°54.774 16.4 285 9.2 100910 51
2011-01-13 08:09:49 51°14.794 2°54.758 21 24 9.2 100910 52
2011-01-13 08:09:54 51°14.808 2°54.741 13.7 305 9.2 100910 52
2011-01-13 08:09:59 51°14.822 2°54.725 16.1 24 9.2 100910 51
2011-01-13 08:10:05 51°14.838 2°54.705 20.6 281 9.2 100910 51
2011-01-13 08:10:10 51°14.852 2°54.689 20.6 22 9.2 100910 51
2011-01-13 08:10:15 51°14.865 2°54.673 20.9 304 9.2 100910 51
2011-01-13 08:10:21 51°14.88 2°54.651 18.6 24 9.1 100910 51
2011-01-13 08:10:26 51°14.894 2°54.635 16.9 285 9.1 100910 51
2011-01-13 08:10:30 51°14.905 2°54.621 19.6 24 9.1 100900 52
2011-01-13 08:10:35 51°14.92 2°54.605 17 281 9.1 100900 52
2011-01-13 08:10:40 51°14.934 2°54.588 19.2 26 9.1 100900 52
2011-01-13 08:10:46 51°14.95 2°54.568 17.2 306 9.1 100900 52
2011-01-13 08:10:50 51°14.961 2°54.554 18.1 26 9.1 100910 51
2011-01-13 08:10:55 51°14.975 2°54.537 17.4 282 9.1 100910 51
2011-01-13 08:11:00 51°14.989 2°54.521 13.4 22 9.1 100910 51
2011-01-13 08:11:05 51°15.003 2°54.504 17.9 305 9.1 100910 51
2011-01-13 08:11:10 51°15.018 2°54.487 18.7 25 9 100900 51
2011-01-13 08:11:14 51°15.029 2°54.474 17.3 282 9 100900 51
2011-01-13 08:11:19 51°15.044 2°54.458 14 21 9.1 100890 52
2011-01-13 08:11:24 51°15.058 2°54.441 17.9 306 9.1 100890 52
2011-01-13 08:11:29 51°15.072 2°54.424 19.3 25 9 100900 51
2011-01-13 08:11:34 51°15.086 2°54.407 15.7 308 9 100900 51
2011-01-13 08:11:38 51°15.097 2°54.393 16.4 23 9 100910 52
2011-01-13 08:11:43 51°15.111 2°54.376 16.5 282 9 100910 52
2011-01-13 08:11:49 51°15.128 2°54.356 13.4 24 9 100910 52
2011-01-13 08:11:54 51°15.141 2°54.338 18 282 9 100910 52
2011-01-13 08:11:58 51°15.152 2°54.324 19.4 24 9 100900 52
2011-01-13 08:12:03 51°15.166 2°54.307 20.5 280 9 100900 52
2011-01-13 08:12:07 51°15.177 2°54.293 20.3 21 9 100910 52
2011-01-13 08:12:13 51°15.193 2°54.272 19.6 306 9 100910 52
2011-01-13 08:12:18 51°15.207 2°54.255 16 24 9 100900 51
2011-01-13 08:12:22 51°15.218 2°54.241 16.3 284 9 100900 51
2011-01-13 08:12:27 51°15.233 2°54.224 17 24 9 100900 52
2011-01-13 08:12:32 51°15.246 2°54.206 18.4 284 9 100900 52
2011-01-13 08:12:37 51°15.261 2°54.189 17 22 9 100910 52
2011-01-13 08:12:42 51°15.275 2°54.171 19.1 282 9 100910 52
2011-01-13 08:12:46 51°15.285 2°54.157 19.2 24 9 100900 52
2011-01-13 08:12:52 51°15.303 2°54.137 19 282 9 100900 52
2011-01-13 08:12:57 51°15.316 2°54.12 16.6 27 8.9 100890 50
2011-01-13 08:13:03 51°15.333 2°54.101 18.2 307 8.9 100890 50
2011-01-13 08:13:07 51°15.344 2°54.088 19.6 24 8.9 100900 52
2011-01-13 08:13:12 51°15.358 2°54.071 15.8 306 8.9 100900 52
2011-01-13 08:13:17 51°15.371 2°54.055 17.5 23 8.9 100900 51
2011-01-13 08:13:22 51°15.385 2°54.04 19.2 305 8.9 100900 51
2011-01-13 08:13:27 51°15.398 2°54.023 23.5 24 8.9 100890 51
2011-01-13 08:13:31 51°15.409 2°54.01 18.4 306 8.9 100890 51
2011-01-13 08:13:37 51°15.425 2°53.99 18.5 23 8.9 100900 51
2011-01-13 08:13:42 51°15.438 2°53.974 16.6 281 8.9 100900 51
2011-01-13 08:13:47 51°15.452 2°53.956 16.5 26 8.9 100900 52
2011-01-13 08:13:52 51°15.465 2°53.939 15.4 305 8.9 100900 52
2011-01-13 08:13:57 51°15.479 2°53.922 20.4 24 8.9 100880 51
2011-01-13 08:14:02 51°15.492 2°53.904 18.8 282 8.9 100880 51
2011-01-13 08:14:07 51°15.506 2°53.887 17.9 24 9 100920 52
2011-01-13 08:14:12 51°15.519 2°53.87 22 307 9 100920 52
2011-01-13 08:14:17 51°15.533 2°53.852 18.7 26 8.9 100890 51
2011-01-13 08:14:22 51°15.546 2°53.834 16.2 280 8.9 100890 51
2011-01-13 08:14:27 51°15.559 2°53.816 19.4 22 8.9 100900 52
2011-01-13 08:14:31 51°15.57 2°53.801 17.3 283 8.9 100900 52
2011-01-13 08:14:37 51°15.586 2°53.78 17.6 22 8.9 100900 51
2011-01-13 08:14:42 51°15.599 2°53.762 18.4 280 8.9 100900 51
2011-01-13 08:14:47 51°15.612 2°53.744 19.2 24 8.9 100890 51
2011-01-13 08:14:52 51°15.626 2°53.726 20.5 282 8.9 100890 51
2011-01-13 08:14:57 51°15.639 2°53.708 18.9 22 8.9 100890 51
2011-01-13 08:15:02 51°15.653 2°53.69 18.3 308 8.9 100890 51
2011-01-13 08:15:07 51°15.666 2°53.672 17.7 23 8.9 100900 51
2011-01-13 08:15:12 51°15.68 2°53.654 19.3 281 8.9 100900 51
2011-01-13 08:15:17 51°15.693 2°53.636 16 21 8.9 100890 52
2011-01-13 08:15:22 51°15.706 2°53.616 18 309 8.9 100890 52
2011-01-13 08:15:27 51°15.719 2°53.599 18.2 22 8.8 100880 52
2011-01-13 08:15:32 51°15.732 2°53.579 20.5 283 8.8 100880 52
2011-01-13 08:15:37 51°15.745 2°53.563 13.7 23 8.9 100910 51
2011-01-13 08:15:42 51°15.759 2°53.546 19.6 283 8.9 100910 51
2011-01-13 08:15:47 51°15.773 2°53.53 18.8 25 8.9 100880 51
2011-01-13 08:15:52 51°15.787 2°53.514 17.4 282 8.9 100880 51
2011-01-13 08:15:57 51°15.801 2°53.499 16 24 8.9 100880 51
2011-01-13 08:16:02 51°15.816 2°53.482 20.4 281 8.9 100880 51
2011-01-13 08:16:07 51°15.831 2°53.467 20 23 8.8 100910 52
2011-01-13 08:16:12 51°15.846 2°53.453 15.1 305 8.8 100910 52
2011-01-13 08:16:17 51°15.862 2°53.438 16.4 20 8.8 100880 52
2011-01-13 08:16:22 51°15.878 2°53.424 19.2 282 8.8 100880 52
2011-01-13 08:16:27 51°15.894 2°53.41 19.4 22 8.8 100900 52
2011-01-13 08:16:32 51°15.909 2°53.395 17.1 308 8.8 100900 52
2011-01-13 08:16:37 51°15.925 2°53.384 16.2 24 8.8 100890 51
2011-01-13 08:16:42 51°15.941 2°53.37 18.7 282 8.8 100890 51
2011-01-13 08:16:47 51°15.957 2°53.358 17.5 23 8.8 100900 52
2011-01-13 08:16:52 51°15.973 2°53.344 16.4 280 8.8 100900 52
2011-01-13 08:16:57 51°15.989 2°53.333 16.8 23 8.8 100910 51
2011-01-13 08:17:02 51°16.005 2°53.318 16 307 8.8 100910 51
2011-01-13 08:17:07 51°16.021 2°53.305 15 21 8.8 100900 51
2011-01-13 08:17:11 51°16.033 2°53.295 15.8 282 8.8 100900 51
2011-01-13 08:17:17 51°16.053 2°53.281 15.4 25 8.8 100890 51
2011-01-13 08:17:22 51°16.069 2°53.268 15.5 307 8.8 100890 51
2011-01-13 08:17:27 51°16.086 2°53.256 16.3 23 8.8 100900 52
2011-01-13 08:17:32 51°16.101 2°53.243 17.9 283 8.8 100900 52
2011-01-13 08:17:37 51°16.118 2°53.232 23.2 24 8.8 100900 51
2011-01-13 08:17:42 51°16.134 2°53.218 18.3 283 8.8 100900 51
2011-01-13 08:17:47 51°16.15 2°53.205 13.5 23 8.8 100900 51
2011-01-13 08:17:52 51°16.166 2°53.193 8.4 280 8.8 100900 51
2011-01-13 08:17:57 51°16.182 2°53.181 16.6 23 8.7 100920 52
2011-01-13 08:18:02 51°16.199 2°53.17 18 308 8.7 100920 52
2011-01-13 08:18:07 51°16.215 2°53.157 15.6 24 8.7 100880 52
2011-01-13 08:18:12 51°16.231 2°53.144 15.6 303 8.7 100880 52
2011-01-13 08:18:17 51°16.247 2°53.132 9.6 242 8.7 100900 51
2011-01-13 08:18:22 51°16.263 2°53.12 20.7 281 8.7 100900 51
2011-01-13 08:18:27 51°16.279 2°53.108 17.5 22 8.7 100890 52
2011-01-13 08:18:32 51°16.295 2°53.095 20.3 307 8.7 100890 52
2011-01-13 08:18:37 51°16.311 2°53.082 15.5 23 8.7 100890 51
2011-01-13 08:18:42 51°16.327 2°53.07 18.3 283 8.7 100890 51
2011-01-13 08:18:47 51°16.343 2°53.058 8.3 26 8.7 100900 52
2011-01-13 08:18:52 51°16.36 2°53.047 19.1 306 8.7 100900 52
2011-01-13 08:18:57 51°16.376 2°53.033 19.1 21 8.7 100890 51
2011-01-13 08:19:02 51°16.392 2°53.021 19.2 281 8.7 100890 51
2011-01-13 08:19:07 51°16.408 2°53.01 17.5 25 8.7 100900 51
2011-01-13 08:19:12 51°16.424 2°52.999 12.3 303 8.7 100900 51
2011-01-13 08:19:17 51°16.44 2°52.986 14.4 26 8.7 100920 51
2011-01-13 08:19:22 51°16.455 2°52.974 16.8 284 8.7 100920 51
2011-01-13 08:19:27 51°16.471 2°52.96 16.1 26 8.7 100880 53
2011-01-13 08:19:32 51°16.487 2°52.949 15.6 278 8.7 100880 53
2011-01-13 08:19:36 51°16.499 2°52.938 17.3 23 8.7 100910 52
2011-01-13 08:19:42 51°16.519 2°52.923 21.2 304 8.7 100910 52
2011-01-13 08:19:47 51°16.534 2°52.91 19.5 20 8.7 100900 51
2011-01-13 08:19:52 51°16.551 2°52.898 16.6 282 8.7 100900 51
2011-01-13 08:19:57 51°16.567 2°52.885 17.3 26 8.7 100910 53
2011-01-13 08:20:02 51°16.583 2°52.873 19.8 281 8.7 100910 53
2011-01-13 08:20:07 51°16.599 2°52.86 15.5 20 8.7 100880 51
2011-01-13 08:20:12 51°16.616 2°52.848 14.4 308 8.7 100880 51
2011-01-13 08:20:17 51°16.632 2°52.836 15 21 8.6 100890 52
2011-01-13 08:20:22 51°16.647 2°52.822 15.7 282 8.6 100890 52
2011-01-13 08:20:27 51°16.664 2°52.81 22.3 21 8.6 100900 53
2011-01-13 08:20:32 51°16.68 2°52.797 17.2 284 8.6 100900 53
2011-01-13 08:20:37 51°16.696 2°52.785 15.4 25 8.6 100890 52
2011-01-13 08:20:42 51°16.712 2°52.771 16.4 283 8.6 100890 52
2011-01-13 08:20:47 51°16.729 2°52.76 15.8 22 8.6 100900 51
2011-01-13 08:20:52 51°16.744 2°52.747 15 309 8.6 100900 51
2011-01-13 08:20:57 51°16.76 2°52.734 20.3 21 8.6 100900 50
2011-01-13 08:21:02 51°16.775 2°52.721 15.7 281 8.6 100900 50
2011-01-13 08:21:07 51°16.791 2°52.707 24.4 25 8.6 100910 51
2011-01-13 08:21:12 51°16.807 2°52.694 17.4 309 8.6 100910 51
2011-01-13 08:21:18 51°16.826 2°52.678 15.2 25 8.6 100880 52
2011-01-13 08:21:22 51°16.839 2°52.667 17.1 285 8.6 100880 52
2011-01-13 08:21:28 51°16.858 2°52.651 15.7 21 8.6 100910 52
2011-01-13 08:21:32 51°16.87 2°52.641 12.2 280 8.6 100910 52
2011-01-13 08:21:37 51°16.886 2°52.628 18.6 26 8.6 100900 51
2011-01-13 08:21:42 51°16.902 2°52.616 16.6 282 8.6 100900 51
2011-01-13 08:21:47 51°16.918 2°52.602 8.5 24 8.6 100900 51
2011-01-13 08:21:52 51°16.934 2°52.589 19.6 284 8.6 100900 51
2011-01-13 08:21:57 51°16.95 2°52.575 18.7 23 8.6 100900 52
2011-01-13 08:22:02 51°16.967 2°52.564 16.5 303 8.6 100900 52
2011-01-13 08:22:07 51°16.983 2°52.552 15.5 22 8.6 100900 52
2011-01-13 08:22:12 51°17 2°52.541 20.7 283 8.6 100900 52
2011-01-13 08:22:16 51°17.014 2°52.534 18.1 20 8.6 100900 52
2011-01-13 08:22:22 51°17.034 2°52.52 10.9 307 8.6 100900 52
2011-01-13 08:22:27 51°17.052 2°52.512 12.5 249 8.6 100890 51
2011-01-13 08:22:32 51°17.069 2°52.501 17.8 307 8.6 100890 51
2011-01-13 08:22:36 51°17.083 2°52.495 18.1 248 8.6 100920 52
2011-01-13 08:22:42 51°17.103 2°52.485 17.9 285 8.6 100920 52
2011-01-13 08:22:47 51°17.121 2°52.476 17.3 22 8.6 100920 51
2011-01-13 08:22:52 51°17.136 2°52.463 16 307 8.6 100920 51
2011-01-13 08:22:57 51°17.153 2°52.454 16 23 8.5 100910 52
2011-01-13 08:23:02 51°17.17 2°52.443 17.6 284 8.5 100910 52
2011-01-13 08:23:07 51°17.187 2°52.434 19.9 22 8.5 100910 52
2011-01-13 08:23:12 51°17.205 2°52.424 15.8 304 8.5 100910 52
2011-01-13 08:23:16 51°17.218 2°52.416 15.1 245 8.5 100900 51
2011-01-13 08:23:22 51°17.239 2°52.405 16 283 8.5 100900 51
2011-01-13 08:23:27 51°17.257 2°52.397 15.4 248 8.5 100900 52
2011-01-13 08:23:32 51°17.275 2°52.388 19 308 8.5 100900 52
2011-01-13 08:23:37 51°17.292 2°52.379 12.9 24 8.5 100910 52
2011-01-13 08:23:42 51°17.31 2°52.373 14.4 284 8.5 100910 52
2011-01-13 08:23:47 51°17.328 2°52.366 15.6 249 8.5 100910 52
2011-01-13 08:23:52 51°17.346 2°52.358 15.8 281 8.5 100910 52
2011-01-13 08:23:57 51°17.365 2°52.353 14.9 21 8.5 100910 51
2011-01-13 08:24:02 51°17.382 2°52.344 14 302 8.5 100910 51
2011-01-13 08:24:07 51°17.4 2°52.341 17.4 246 8.5 100920 51
2011-01-13 08:24:12 51°17.418 2°52.333 14.4 304 8.5 100920 51
2011-01-13 08:24:16 51°17.432 2°52.328 12.5 248 8.5 100910 52
2011-01-13 08:24:22 51°17.454 2°52.319 11.6 284 8.5 100910 52
2011-01-13 08:24:27 51°17.472 2°52.314 14.5 252 8.5 100920 51
2011-01-13 08:24:32 51°17.49 2°52.307 17.2 303 8.5 100920 51
2011-01-13 08:24:37 51°17.508 2°52.301 12 249 8.5 100920 51
2011-01-13 08:24:42 51°17.526 2°52.297 20.4 283 8.5 100920 51
2011-01-13 08:24:47 51°17.543 2°52.289 14.7 21 8.5 100940 52
2011-01-13 08:24:52 51°17.562 2°52.285 14.4 304 8.5 100940 52
2011-01-13 08:24:57 51°17.58 2°52.277 11.4 20 8.5 100910 52
2011-01-13 08:25:02 51°17.598 2°52.273 18 283 8.5 100910 52
2011-01-13 08:25:07 51°17.616 2°52.267 16 252 8.4 100910 52
2011-01-13 08:25:12 51°17.634 2°52.26 12.2 306 8.4 100910 52
2011-01-13 08:25:17 51°17.652 2°52.254 18.4 249 8.4 100920 51
2011-01-13 08:25:22 51°17.67 2°52.247 15.2 283 8.4 100920 51
2011-01-13 08:25:27 51°17.688 2°52.243 15.5 248 8.4 100910 51
2011-01-13 08:25:32 51°17.707 2°52.236 14.5 304 8.4 100910 51
2011-01-13 08:25:37 51°17.725 2°52.23 14.3 252 8.4 100920 51
2011-01-13 08:25:42 51°17.743 2°52.226 17.3 308 8.4 100920 51
2011-01-13 08:25:47 51°17.761 2°52.219 19.8 23 8.4 100920 52
2011-01-13 08:25:52 51°17.778 2°52.21 15.9 281 8.4 100920 52
2011-01-13 08:25:57 51°17.796 2°52.203 19.2 249 8.4 100920 52
2011-01-13 08:26:02 51°17.814 2°52.196 18.6 307 8.4 100920 52
2011-01-13 08:26:07 51°17.832 2°52.191 14.7 248 8.4 100930 52
2011-01-13 08:26:12 51°17.851 2°52.19 15.8 304 8.4 100930 52
2011-01-13 08:26:17 51°17.869 2°52.185 13.1 254 8.3 100920 50
2011-01-13 08:26:22 51°17.887 2°52.183 14.5 282 8.3 100920 50
2011-01-13 08:26:27 51°17.906 2°52.181 14.9 252 8.4 100920 51
2011-01-13 08:26:32 51°17.925 2°52.18 14.8 306 8.4 100920 51
2011-01-13 08:26:37 51°17.944 2°52.183 14 248 8.4 100920 52
2011-01-13 08:26:42 51°17.962 2°52.182 12.1 306 8.4 100920 52
2011-01-13 08:26:47 51°17.981 2°52.185 12.8 256 8.4 100940 52
2011-01-13 08:26:52 51°18 2°52.185 18.2 282 8.4 100940 52
2011-01-13 08:26:56 51°18.015 2°52.188 13.3 255 8.4 100920 52
2011-01-13 08:27:02 51°18.038 2°52.191 16.2 281 8.4 100920 52
2011-01-13 08:27:07 51°18.056 2°52.189 12.1 258 8.4 100940 51
2011-01-13 08:27:12 51°18.075 2°52.193 14.8 302 8.4 100940 51
2011-01-13 08:27:16 51°18.09 2°52.193 12.9 255 8.4 100930 52
2011-01-13 08:27:22 51°18.113 2°52.198 12.3 283 8.4 100930 52
2011-01-13 08:27:27 51°18.131 2°52.199 14.2 257 8.4 100920 51
2011-01-13 08:27:32 51°18.15 2°52.203 10.7 303 8.4 100920 51
2011-01-13 08:27:36 51°18.165 2°52.206 10.4 259 8.4 100930 52
2011-01-13 08:27:42 51°18.187 2°52.212 13.9 282 8.4 100930 52
2011-01-13 08:27:47 51°18.206 2°52.213 15.5 255 8.3 100930 51
2011-01-13 08:27:52 51°18.224 2°52.215 15.7 305 8.3 100930 51
2011-01-13 08:27:57 51°18.243 2°52.217 12.8 261 8.4 100930 51
2011-01-13 08:28:02 51°18.261 2°52.219 11.3 309 8.4 100930 51
2011-01-13 08:28:07 51°18.281 2°52.223 17.1 262 8.4 100930 52
2011-01-13 08:28:12 51°18.299 2°52.229 14.8 305 8.4 100930 52
2011-01-13 08:28:16 51°18.314 2°52.231 13 254 8.4 100940 52
2011-01-13 08:28:22 51°18.336 2°52.232 13.4 284 8.4 100940 52
2011-01-13 08:28:27 51°18.355 2°52.235 14.9 257 8.4 100940 52
2011-01-13 08:28:32 51°18.374 2°52.238 13.3 310 8.4 100940 52
2011-01-13 08:28:36 51°18.389 2°52.241 13.9 258 8.4 100940 52
2011-01-13 08:28:42 51°18.412 2°52.242 13 286 8.4 100940 52
2011-01-13 08:28:47 51°18.43 2°52.248 13.3 253 8.4 100950 52
2011-01-13 08:28:52 51°18.449 2°52.251 13.8 284 8.4 100950 52
2011-01-13 08:28:56 51°18.464 2°52.251 10 261 8.4 100940 52
2011-01-13 08:29:02 51°18.487 2°52.257 13.7 307 8.4 100940 52
2011-01-13 08:29:07 51°18.506 2°52.257 11.4 256 8.3 100950 52
2011-01-13 08:29:12 51°18.524 2°52.259 14.2 306 8.3 100950 52
2011-01-13 08:29:17 51°18.543 2°52.26 12.4 254 8.3 100940 51
2011-01-13 08:29:22 51°18.562 2°52.262 14.4 277 8.3 100940 51
2011-01-13 08:29:27 51°18.581 2°52.267 14.8 252 8.4 100950 52
2011-01-13 08:29:32 51°18.6 2°52.268 19 307 8.4 100950 52
2011-01-13 08:29:37 51°18.619 2°52.268 15.7 258 8.3 100950 52
2011-01-13 08:29:42 51°18.637 2°52.273 15.6 283 8.3 100950 52
2011-01-13 08:29:47 51°18.656 2°52.274 16.4 257 8.3 100950 52
2011-01-13 08:29:52 51°18.675 2°52.276 12.6 279 8.3 100950 52
2011-01-13 08:29:57 51°18.694 2°52.278 14.1 255 8.3 100940 52
2011-01-13 08:30:02 51°18.713 2°52.28 13.8 282 8.3 100940 52
2011-01-13 08:30:07 51°18.731 2°52.285 15.8 260 8.3 100930 52
2011-01-13 08:30:12 51°18.75 2°52.287 13.9 307 8.3 100930 52
2011-01-13 08:30:17 51°18.769 2°52.288 17 255 8.3 100950 51
2011-01-13 08:30:22 51°18.788 2°52.292 13.1 281 8.3 100950 51
2011-01-13 08:30:27 51°18.807 2°52.296 16.7 251 8.3 100950 52
2011-01-13 08:30:32 51°18.826 2°52.298 14.4 307 8.3 100950 52
2011-01-13 08:30:37 51°18.845 2°52.304 13.9 256 8.3 100930 51
2011-01-13 08:30:42 51°18.864 2°52.302 14.5 306 8.3 100930 51
2011-01-13 08:30:47 51°18.883 2°52.307 14.2 254 8.3 100940 51
2011-01-13 08:30:52 51°18.902 2°52.306 14.1 280 8.3 100940 51
2011-01-13 08:30:56 51°18.917 2°52.31 12.4 256 8.3 100950 52
2011-01-13 08:31:02 51°18.94 2°52.314 16.3 305 8.3 100950 52
2011-01-13 08:31:07 51°18.959 2°52.314 11.5 259 8.3 100920 51
2011-01-13 08:31:12 51°18.978 2°52.318 14.4 306 8.3 100920 51
2011-01-13 08:31:17 51°18.997 2°52.32 13.4 259 8.3 100920 51
2011-01-13 08:31:22 51°19.015 2°52.322 12.2 303 8.3 100920 51
2011-01-13 08:31:27 51°19.034 2°52.327 13.9 257 8.3 100930 51
2011-01-13 08:31:32 51°19.053 2°52.327 13.2 308 8.3 100930 51
2011-01-13 08:31:37 51°19.072 2°52.329 15.8 259 8.2 100940 50
2011-01-13 08:31:42 51°19.091 2°52.33 12.5 278 8.2 100940 50
2011-01-13 08:31:47 51°19.11 2°52.333 15.7 254 8.2 100940 51
2011-01-13 08:31:52 51°19.129 2°52.333 14.3 305 8.2 100940 51
2011-01-13 08:31:57 51°19.147 2°52.338 15.2 257 8.2 100930 51
2011-01-13 08:32:02 51°19.166 2°52.341 11.4 277 8.2 100930 51
2011-01-13 08:32:07 51°19.185 2°52.339 14.5 255 8.2 100940 52
2011-01-13 08:32:12 51°19.203 2°52.341 15 309 8.2 100940 52
2011-01-13 08:32:16 51°19.218 2°52.341 9.6 18 8.2 100920 52
2011-01-13 08:32:22 51°19.241 2°52.343 13 284 8.2 100920 52
2011-01-13 08:32:27 51°19.26 2°52.341 10.2 250 8.2 100920 51
2011-01-13 08:32:32 51°19.279 2°52.342 12.9 310 8.2 100920 51
2011-01-13 08:32:37 51°19.298 2°52.339 12 255 8.2 100930 52
2011-01-13 08:32:42 51°19.316 2°52.341 12.7 306 8.2 100930 52
2011-01-13 08:32:47 51°19.335 2°52.341 15.7 252 8.2 100910 52
2011-01-13 08:32:52 51°19.354 2°52.338 14.3 282 8.2 100910 52
2011-01-13 08:32:57 51°19.373 2°52.337 15.8 257 8.2 100920 52
2011-01-13 08:33:02 51°19.391 2°52.336 13.9 303 8.2 100920 52
2011-01-13 08:33:07 51°19.411 2°52.335 15.6 256 8.2 100940 51
2011-01-13 08:33:12 51°19.429 2°52.332 9.6 282 8.2 100940 51
2011-01-13 08:33:17 51°19.448 2°52.331 15.9 252 8.2 100930 52
2011-01-13 08:33:22 51°19.466 2°52.327 12.1 305 8.2 100930 52
2011-01-13 08:33:27 51°19.485 2°52.328 12.8 250 8.2 100930 52
2011-01-13 08:33:32 51°19.504 2°52.323 12 308 8.2 100930 52
2011-01-13 08:33:37 51°19.522 2°52.323 16.9 255 8.2 100950 51
2011-01-13 08:33:42 51°19.541 2°52.322 13.4 282 8.2 100950 51
2011-01-13 08:33:47 51°19.56 2°52.32 14.6 255 8.2 100930 52
2011-01-13 08:33:52 51°19.579 2°52.321 13.5 303 8.2 100930 52
2011-01-13 08:33:57 51°19.598 2°52.32 17.7 257 8.1 100930 52
2011-01-13 08:34:02 51°19.617 2°52.322 10.6 284 8.1 100930 52
2011-01-13 08:34:07 51°19.636 2°52.322 14.8 254 8.2 100920 52
2011-01-13 08:34:12 51°19.655 2°52.323 15.1 304 8.2 100920 52
2011-01-13 08:34:16 51°19.67 2°52.323 13.4 255 8.2 100930 50
2011-01-13 08:34:22 51°19.692 2°52.318 13.5 283 8.2 100930 50
2011-01-13 08:34:27 51°19.711 2°52.318 15.7 253 8.2 100940 52
2011-01-13 08:34:32 51°19.73 2°52.316 11.3 306 8.2 100940 52
2011-01-13 08:34:37 51°19.749 2°52.32 13.5 249 8.2 100950 52
2011-01-13 08:34:42 51°19.767 2°52.314 16.2 284 8.2 100950 52
2011-01-13 08:34:47 51°19.785 2°52.313 15.2 255 8.2 100920 51
2011-01-13 08:34:52 51°19.804 2°52.312 11.6 284 8.2 100920 51
2011-01-13 08:34:57 51°19.822 2°52.309 15.3 256 8.1 100920 52
2011-01-13 08:35:03 51°19.845 2°52.312 15.1 284 8.1 100920 52
2011-01-13 08:35:07 51°19.859 2°52.306 12.3 252 8.1 100910 51
2011-01-13 08:35:12 51°19.877 2°52.305 12.4 285 8.1 100910 51
2011-01-13 08:35:17 51°19.895 2°52.302 13.9 257 8.1 100920 51
2011-01-13 08:35:22 51°19.914 2°52.302 14.6 281 8.1 100920 51
2011-01-13 08:35:27 51°19.933 2°52.3 13.6 254 8.1 100920 53
2011-01-13 08:35:32 51°19.951 2°52.299 11.4 278 8.1 100920 53
2011-01-13 08:35:36 51°19.966 2°52.299 13.6 252 8.1 100920 51
2011-01-13 08:35:42 51°19.988 2°52.298 15.5 307 8.1 100920 51
2011-01-13 08:35:47 51°20.007 2°52.297 19.9 256 8.1 100920 51
2011-01-13 08:35:52 51°20.025 2°52.3 13.8 305 8.1 100920 51
2011-01-13 08:35:56 51°20.041 2°52.297 14.3 248 8.1 100950 51
2011-01-13 08:36:02 51°20.062 2°52.294 14 284 8.1 100950 51
2011-01-13 08:36:07 51°20.08 2°52.292 14.3 256 8.1 100920 51
2011-01-13 08:36:12 51°20.1 2°52.29 15.6 307 8.1 100920 51
2011-01-13 08:36:16 51°20.114 2°52.286 11.3 254 8.1 100940 51
2011-01-13 08:36:22 51°20.137 2°52.287 15.3 282 8.1 100940 51
2011-01-13 08:36:27 51°20.155 2°52.284 15.3 255 8.1 100920 52
2011-01-13 08:36:32 51°20.174 2°52.286 17.5 305 8.1 100920 52
2011-01-13 08:36:37 51°20.192 2°52.281 12.7 250 8.1 100910 53
2011-01-13 08:36:42 51°20.211 2°52.281 14 285 8.1 100910 53
2011-01-13 08:36:47 51°20.229 2°52.275 14.1 254 8.1 100920 51
2011-01-13 08:36:52 51°20.247 2°52.275 14.2 304 8.1 100920 51
2011-01-13 08:36:57 51°20.266 2°52.27 15.1 251 8 100920 51
2011-01-13 08:37:02 51°20.284 2°52.266 11.9 306 8 100920 51
2011-01-13 08:37:07 51°20.302 2°52.263 17.2 253 8 100920 53
2011-01-13 08:37:12 51°20.32 2°52.26 11.4 305 8 100920 53
2011-01-13 08:37:17 51°20.337 2°52.255 13.5 252 8 100920 52
2011-01-13 08:37:22 51°20.355 2°52.255 15.2 306 8 100920 52
2011-01-13 08:37:27 51°20.372 2°52.249 16.9 257 8 100930 52
2011-01-13 08:37:32 51°20.389 2°52.245 13.7 282 8 100930 52
2011-01-13 08:37:36 51°20.403 2°52.243 15.7 251 8.1 100900 51
2011-01-13 08:37:42 51°20.422 2°52.235 14.1 284 8.1 100900 51
2011-01-13 08:37:47 51°20.439 2°52.232 13 249 8 100920 52
2011-01-13 08:37:52 51°20.455 2°52.226 13 307 8 100920 52
2011-01-13 08:37:57 51°20.471 2°52.223 17 21 8 100930 53
2011-01-13 08:38:02 51°20.487 2°52.215 16.4 310 8 100930 53
2011-01-13 08:38:07 51°20.502 2°52.206 15.5 21 8 100920 52
2011-01-13 08:38:12 51°20.517 2°52.195 13.7 306 8 100920 52
2011-01-13 08:38:17 51°20.531 2°52.185 18 24 8 100940 51
2011-01-13 08:38:22 51°20.545 2°52.174 9.7 279 8 100940 51
2011-01-13 08:38:27 51°20.558 2°52.16 7.9 25 8 100930 52
2011-01-13 08:38:32 51°20.572 2°52.147 14.7 308 8 100930 52
2011-01-13 08:38:37 51°20.586 2°52.135 18.9 24 8 100910 51
2011-01-13 08:38:42 51°20.599 2°52.121 19.7 302 8 100910 51
2011-01-13 08:38:47 51°20.612 2°52.107 13.3 24 8 100910 51
2011-01-13 08:38:52 51°20.626 2°52.094 15.7 308 8 100910 51
2011-01-13 08:38:57 51°20.639 2°52.079 13.6 19 8 100930 51
2011-01-13 08:39:02 51°20.652 2°52.066 18.6 281 8 100930 51
2011-01-13 08:39:07 51°20.665 2°52.053 15.5 20 8 100900 51
2011-01-13 08:39:12 51°20.678 2°52.038 17.7 307 8 100900 51
2011-01-13 08:39:17 51°20.692 2°52.025 13.8 24 8 100910 51
2011-01-13 08:39:22 51°20.704 2°52.009 15.2 309 8 100910 51
2011-01-13 08:39:27 51°20.718 2°51.995 19.8 23 8 100890 52
2011-01-13 08:39:32 51°20.731 2°51.981 15.7 303 8 100890 52
2011-01-13 08:39:36 51°20.741 2°51.968 14.9 22 8 100890 51
2011-01-13 08:39:42 51°20.757 2°51.95 15.4 281 8 100890 51
2011-01-13 08:39:47 51°20.771 2°51.936 14 26 8 100900 53
2011-01-13 08:39:52 51°20.784 2°51.922 14.9 309 8 100900 53
2011-01-13 08:39:57 51°20.797 2°51.907 17.8 21 8 100900 52
2011-01-13 08:40:02 51°20.811 2°51.892 19.9 303 8 100900 52
2011-01-13 08:40:07 51°20.824 2°51.877 15.6 25 8 100890 52
2011-01-13 08:40:12 51°20.837 2°51.861 15.5 309 8 100890 52
2011-01-13 08:40:17 51°20.851 2°51.848 12.9 21 8 100920 52
2011-01-13 08:40:22 51°20.864 2°51.833 16.2 281 8 100920 52
2011-01-13 08:40:27 51°20.878 2°51.818 13.1 24 8 100900 52
2011-01-13 08:40:32 51°20.891 2°51.803 15 306 8 100900 52
2011-01-13 08:40:36 51°20.903 2°51.793 16.2 24 8 100890 53
2011-01-13 08:40:42 51°20.919 2°51.775 18.6 283 8 100890 53
2011-01-13 08:40:47 51°20.932 2°51.759 7.2 22 8 100920 53
2011-01-13 08:40:52 51°20.946 2°51.746 13.6 303 8 100920 53
2011-01-13 08:40:56 51°20.956 2°51.733 13.1 24 8 100900 51
2011-01-13 08:41:02 51°20.973 2°51.715 14.6 306 8 100900 51
2011-01-13 08:41:07 51°20.987 2°51.7 14.8 25 8 100910 51
2011-01-13 08:41:12 51°21.001 2°51.686 16 303 8 100910 51
2011-01-13 08:41:17 51°21.015 2°51.674 14.3 22 7.9 100900 51
2011-01-13 08:41:23 51°21.03 2°51.657 13.4 305 7.9 100900 51
2011-01-13 08:41:28 51°21.042 2°51.642 14.8 23 7.9 100910 51
2011-01-13 08:41:33 51°21.056 2°51.628 13.3 282 7.9 100910 51
2011-01-13 08:41:38 51°21.07 2°51.614 17.7 23 7.9 100880 52
2011-01-13 08:41:43 51°21.083 2°51.601 15.5 285 7.9 100880 52
2011-01-13 08:41:48 51°21.097 2°51.589 19.2 23 7.9 100900 51
2011-01-13 08:41:52 51°21.108 2°51.578 19.7 282 7.9 100900 51
2011-01-13 08:41:58 51°21.125 2°51.563 14.1 20 7.9 100920 52
2011-01-13 08:42:03 51°21.138 2°51.548 14.1 282 7.9 100920 52
2011-01-13 08:42:07 51°21.149 2°51.538 14.9 23 7.9 100880 51
2011-01-13 08:42:12 51°21.163 2°51.523 15.4 285 7.9 100880 51
2011-01-13 08:42:17 51°21.177 2°51.51 13.8 20 7.9 100920 52
2011-01-13 08:42:22 51°21.19 2°51.497 16 308 7.9 100920 52
2011-01-13 08:42:27 51°21.204 2°51.484 14 21 7.9 100900 51
2011-01-13 08:42:32 51°21.218 2°51.471 14.9 308 7.9 100900 51
2011-01-13 08:42:36 51°21.228 2°51.46 15.7 23 7.9 100880 52
2011-01-13 08:42:42 51°21.245 2°51.444 21.1 282 7.9 100880 52
2011-01-13 08:42:47 51°21.259 2°51.43 15.7 21 7.9 100920 52
2011-01-13 08:42:52 51°21.272 2°51.416 14.1 308 7.9 100920 52
2011-01-13 08:42:57 51°21.286 2°51.403 19 21 7.9 100930 51
2011-01-13 08:43:02 51°21.3 2°51.39 15.2 282 7.9 100930 51
2011-01-13 08:43:07 51°21.315 2°51.378 13.6 27 7.9 100910 51
2011-01-13 08:43:12 51°21.329 2°51.365 14.7 282 7.9 100910 51
2011-01-13 08:43:17 51°21.342 2°51.35 16 21 7.9 100900 52
2011-01-13 08:43:22 51°21.357 2°51.337 18.3 283 7.9 100900 52
2011-01-13 08:43:27 51°21.371 2°51.323 12.4 25 7.9 100880 52
2011-01-13 08:43:32 51°21.384 2°51.31 16.2 307 7.9 100880 52
2011-01-13 08:43:37 51°21.398 2°51.295 15.8 23 7.9 100900 52
2011-01-13 08:43:42 51°21.412 2°51.283 18.3 283 7.9 100900 52
2011-01-13 08:43:47 51°21.425 2°51.269 14.8 22 7.9 100910 52
2011-01-13 08:43:52 51°21.44 2°51.255 14.3 307 7.9 100910 52
2011-01-13 08:43:57 51°21.454 2°51.241 15.7 23 7.9 100890 51
2011-01-13 08:44:02 51°21.467 2°51.227 18 308 7.9 100890 51
2011-01-13 08:44:07 51°21.481 2°51.212 17.4 22 7.9 100900 52
2011-01-13 08:44:12 51°21.495 2°51.199 17.7 304 7.9 100900 52
2011-01-13 08:44:17 51°21.509 2°51.185 18.2 25 7.9 100900 52
2011-01-13 08:44:22 51°21.523 2°51.171 14.9 306 7.9 100900 52
2011-01-13 08:44:27 51°21.537 2°51.158 17.9 21 7.9 100890 52
2011-01-13 08:44:32 51°21.55 2°51.144 16.2 309 7.9 100890 52
2011-01-13 08:44:36 51°21.562 2°51.134 15.5 21 7.9 100890 53
2011-01-13 08:44:42 51°21.579 2°51.119 14.5 307 7.9 100890 53
2011-01-13 08:44:47 51°21.595 2°51.108 15.3 21 7.9 100890 52
2011-01-13 08:44:52 51°21.61 2°51.098 16 305 7.9 100890 52
2011-01-13 08:44:56 51°21.622 2°51.09 14.7 23 7.9 100890 50
2011-01-13 08:45:02 51°21.642 2°51.08 13.7 282 7.9 100890 50
2011-01-13 08:45:07 51°21.657 2°51.071 14.4 23 7.9 100890 52
2011-01-13 08:45:12 51°21.673 2°51.065 11.7 303 7.9 100890 52
2011-01-13 08:45:17 51°21.689 2°51.055 14 21 7.9 100890 53
2011-01-13 08:45:22 51°21.704 2°51.045 16.5 280 7.9 100890 53
2011-01-13 08:45:27 51°21.72 2°51.036 13.7 25 7.9 100900 53
2011-01-13 08:45:32 51°21.736 2°51.028 18.9 307 7.9 100900 53
2011-01-13 08:45:37 51°21.752 2°51.02 15.6 20 7.9 100910 52
2011-01-13 08:45:42 51°21.768 2°51.011 15 286 7.9 100910 52
2011-01-13 08:45:47 51°21.784 2°51 11 21 7.9 100900 53
2011-01-13 08:45:52 51°21.8 2°50.994 15.3 307 7.9 100900 53
2011-01-13 08:45:57 51°21.816 2°50.985 12.5 247 7.9 100890 53
2011-01-13 08:46:02 51°21.833 2°50.976 13.7 285 7.9 100890 53
2011-01-13 08:46:07 51°21.848 2°50.966 18.5 24 7.9 100900 53
2011-01-13 08:46:12 51°21.865 2°50.959 8.4 308 7.9 100900 53
2011-01-13 08:46:17 51°21.881 2°50.948 12.9 24 7.9 100920 52
2011-01-13 08:46:22 51°21.897 2°50.94 15.9 306 7.9 100920 52
2011-01-13 08:46:27 51°21.914 2°50.932 14.7 22 7.9 100900 51
2011-01-13 08:46:32 51°21.929 2°50.92 15.2 304 7.9 100900 51
2011-01-13 08:46:37 51°21.944 2°50.91 15.8 23 7.9 100880 52
2011-01-13 08:46:42 51°21.96 2°50.899 13.9 281 7.9 100880 52
2011-01-13 08:46:47 51°21.976 2°50.89 17.8 23 7.9 100900 52
2011-01-13 08:46:52 51°21.992 2°50.88 14.4 306 7.9 100900 52
2011-01-13 08:46:57 51°22.007 2°50.868 7.4 245 7.9 100890 53
2011-01-13 08:47:02 51°22.023 2°50.859 15.3 306 7.9 100890 53
2011-01-13 08:47:07 51°22.039 2°50.847 12.8 23 7.9 100900 52
2011-01-13 08:47:12 51°22.055 2°50.839 17.6 303 7.9 100900 52
2011-01-13 08:47:17 51°22.069 2°50.826 15.1 24 8 100880 52
2011-01-13 08:47:22 51°22.085 2°50.815 15.4 308 8 100880 52
2011-01-13 08:47:27 51°22.099 2°50.801 12.4 21 8 100890 51
2011-01-13 08:47:32 51°22.115 2°50.79 15.9 307 8 100890 51
2011-01-13 08:47:36 51°22.126 2°50.78 14.3 24 8 100900 50
2011-01-13 08:47:42 51°22.144 2°50.765 20 282 8 100900 50
2011-01-13 08:47:47 51°22.159 2°50.751 15 26 8 100890 52
2011-01-13 08:47:52 51°22.173 2°50.739 13.7 306 8 100890 52
2011-01-13 08:47:57 51°22.188 2°50.725 17.5 26 7.9 100880 51
2011-01-13 08:48:02 51°22.203 2°50.712 15.7 306 7.9 100880 51
2011-01-13 08:48:07 51°22.217 2°50.699 15.7 22 8 100890 52
2011-01-13 08:48:12 51°22.231 2°50.685 17 307 8 100890 52
2011-01-13 08:48:17 51°22.246 2°50.673 17.4 22 7.9 100890 51
2011-01-13 08:48:22 51°22.26 2°50.66 17.2 285 7.9 100890 51
2011-01-13 08:48:27 51°22.274 2°50.646 15.4 24 7.9 100900 52
2011-01-13 08:48:32 51°22.286 2°50.63 16.5 282 7.9 100900 52
2011-01-13 08:48:37 51°22.3 2°50.616 12.3 25 7.9 100880 52
2011-01-13 08:48:42 51°22.312 2°50.601 15.2 283 7.9 100880 52
2011-01-13 08:48:47 51°22.325 2°50.585 16.6 23 8 100860 51
2011-01-13 08:48:52 51°22.336 2°50.568 15.6 284 8 100860 51
2011-01-13 08:48:56 51°22.346 2°50.554 14.3 22 8 100880 51
2011-01-13 08:49:02 51°22.359 2°50.533 17.5 284 8 100880 51
2011-01-13 08:49:07 51°22.369 2°50.514 16 21 7.9 100900 51
2011-01-13 08:49:12 51°22.379 2°50.496 7.5 280 7.9 100900 51
2011-01-13 08:49:17 51°22.389 2°50.478 21 25 7.9 100870 52
2011-01-13 08:49:22 51°22.399 2°50.459 13.2 285 7.9 100870 52
2011-01-13 08:49:27 51°22.408 2°50.44 17.8 20 8 100870 52
2011-01-13 08:49:32 51°22.417 2°50.42 19.2 284 8 100870 52
2011-01-13 08:49:37 51°22.426 2°50.4 11.3 24 8 100880 51
2011-01-13 08:49:42 51°22.435 2°50.38 15.8 282 8 100880 51
2011-01-13 08:49:47 51°22.443 2°50.36 16.3 24 8 100880 52
2011-01-13 08:49:52 51°22.452 2°50.339 15.9 280 8 100880 52
2011-01-13 08:49:56 51°22.459 2°50.322 17.1 24 8 100890 52
2011-01-13 08:50:02 51°22.47 2°50.296 19.2 284 8 100890 52
2011-01-13 08:50:07 51°22.478 2°50.274 17.2 26 8 100890 52
2011-01-13 08:50:12 51°22.487 2°50.252 14.8 283 8 100890 52
2011-01-13 08:50:17 51°22.495 2°50.232 9 27 8 100870 51
2011-01-13 08:50:23 51°22.506 2°50.207 14.9 280 8 100870 51
2011-01-13 08:50:28 51°22.514 2°50.186 18.8 24 8 100860 52
2011-01-13 08:50:33 51°22.522 2°50.164 18.1 284 8 100860 52
2011-01-13 08:50:38 51°22.532 2°50.143 10.2 26 8 100880 53
2011-01-13 08:50:43 51°22.541 2°50.123 19.3 282 8 100880 53
2011-01-13 08:50:48 51°22.549 2°50.101 8.4 24 8 100890 52
2011-01-13 08:50:52 51°22.555 2°50.083 18.2 283 8 100890 52
2011-01-13 08:50:57 51°22.564 2°50.06 22.1 21 8.1 100890 53
2011-01-13 08:51:03 51°22.574 2°50.033 15.2 284 8.1 100890 53
2011-01-13 08:51:07 51°22.581 2°50.014 21.9 27 8.1 100880 53
2011-01-13 08:51:12 51°22.59 2°49.992 17.8 282 8.1 100880 53
2011-01-13 08:51:16 51°22.597 2°49.975 18.2 26 8.1 100880 52
2011-01-13 08:51:23 51°22.611 2°49.945 15.1 283 8.1 100880 52
2011-01-13 08:51:28 51°22.62 2°49.925 18.1 21 8.1 100890 53
2011-01-13 08:51:32 51°22.627 2°49.907 21.8 282 8.1 100890 53
2011-01-13 08:51:37 51°22.636 2°49.886 8.9 25 8.2 100870 52
2011-01-13 08:51:43 51°22.647 2°49.86 17.3 285 8.2 100870 52
2011-01-13 08:51:47 51°22.656 2°49.843 20.8 23 8.1 100870 52
2011-01-13 08:51:52 51°22.665 2°49.821 19.8 283 8.1 100870 52
2011-01-13 08:51:56 51°22.673 2°49.804 9.4 25 8.1 100890 52
2011-01-13 08:52:02 51°22.684 2°49.78 17.5 284 8.1 100890 52
2011-01-13 08:52:08 51°22.695 2°49.757 13.8 23 8.1 100870 52
2011-01-13 08:52:13 51°22.704 2°49.739 15.3 282 8.1 100870 52
2011-01-13 08:52:19 51°22.714 2°49.718 16.3 23 8.1 100860 51
2011-01-13 08:52:24 51°22.722 2°49.698 13.7 280 8.1 100860 51
2011-01-13 08:52:29 51°22.731 2°49.679 7.5 24 8.1 100880 53
2011-01-13 08:52:35 51°22.741 2°49.657 8.5 280 8.1 100880 53
2011-01-13 08:52:40 51°22.75 2°49.637 19.5 21 8.1 100860 52
2011-01-13 08:52:45 51°22.758 2°49.616 17.7 284 8.1 100860 52
2011-01-13 08:52:49 51°22.766 2°49.599 8.1 25 8.1 100890 51
2011-01-13 08:52:54 51°22.775 2°49.578 17.3 280 8.1 100890 51
2011-01-13 08:53:00 51°22.787 2°49.552 18.8 24 8.1 100870 52
2011-01-13 08:53:04 51°22.794 2°49.535 15.4 285 8.1 100870 52
2011-01-13 08:53:09 51°22.805 2°49.513 19.2 26 8.1 100870 51
2011-01-13 08:53:14 51°22.814 2°49.491 17.2 282 8.1 100870 51
2011-01-13 08:53:19 51°22.824 2°49.468 8.4 24 8.1 100880 52
2011-01-13 08:53:24 51°22.834 2°49.446 16.6 283 8.1 100880 52
2011-01-13 08:53:28 51°22.842 2°49.428 18.2 21 8.1 100880 52
2011-01-13 08:53:33 51°22.851 2°49.407 17 281 8.1 100880 52
2011-01-13 08:53:38 51°22.86 2°49.388 14.7 25 8.1 100870 53
2011-01-13 08:53:44 51°22.872 2°49.364 8.7 281 8.1 100870 53
2011-01-13 08:53:50 51°22.882 2°49.341 16.8 22 8.1 100890 51
2011-01-13 08:53:56 51°22.893 2°49.317 18.7 286 8.1 100890 51
2011-01-13 08:54:00 51°22.901 2°49.301 16.3 24 8.1 100850 53
2011-01-13 08:54:05 51°22.909 2°49.28 8.5 280 8.1 100850 53
2011-01-13 08:54:10 51°22.918 2°49.258 9.2 22 8.1 100910 53
2011-01-13 08:54:15 51°22.927 2°49.236 17.5 283 8.1 100910 53
2011-01-13 08:54:20 51°22.936 2°49.214 8.5 24 8.1 100850 51
2011-01-13 08:54:24 51°22.944 2°49.196 7.8 281 8.1 100850 51
2011-01-13 08:54:29 51°22.954 2°49.175 11.6 27 8.1 100870 52
2011-01-13 08:54:34 51°22.964 2°49.153 19.4 285 8.1 100870 52
2011-01-13 08:54:39 51°22.972 2°49.132 15.7 24 8.1 100870 53
2011-01-13 08:54:44 51°22.982 2°49.11 17.1 284 8.1 100870 53
2011-01-13 08:54:49 51°22.992 2°49.089 20.6 23 8.1 100880 52
2011-01-13 08:54:54 51°23.001 2°49.069 19.2 283 8.1 100880 52
2011-01-13 08:55:00 51°23.012 2°49.046 16.8 23 8.1 100880 52
2011-01-13 08:55:05 51°23.022 2°49.025 18.3 283 8.1 100880 52
2011-01-13 08:55:10 51°23.032 2°49.005 17.1 23 8.1 100880 51
2011-01-13 08:55:15 51°23.041 2°48.985 19.7 284 8.1 100880 51
2011-01-13 08:55:20 51°23.05 2°48.964 8.3 24 8.1 100880 52
2011-01-13 08:55:25 51°23.059 2°48.943 16.8 282 8.1 100880 52
2011-01-13 08:55:30 51°23.069 2°48.922 16.6 22 8.2 100850 52
2011-01-13 08:55:35 51°23.078 2°48.9 15.7 281 8.2 100850 52
2011-01-13 08:55:40 51°23.088 2°48.878 16.9 24 8.2 100870 51
2011-01-13 08:55:44 51°23.095 2°48.86 16.1 285 8.2 100870 51
2011-01-13 08:55:49 51°23.105 2°48.839 8.5 26 8.1 100880 51
2011-01-13 08:55:54 51°23.114 2°48.817 11.7 282 8.1 100880 51
2011-01-13 08:55:59 51°23.123 2°48.795 8.2 22 8.2 100870 53
2011-01-13 08:56:04 51°23.132 2°48.773 16.1 282 8.2 100870 53
2011-01-13 08:56:09 51°23.142 2°48.751 12.5 24 8.2 100880 53
2011-01-13 08:56:15 51°23.153 2°48.728 9.8 281 8.2 100880 53
2011-01-13 08:56:20 51°23.161 2°48.707 15.4 23 8.2 100870 53
2011-01-13 08:56:25 51°23.17 2°48.685 17.1 283 8.2 100870 53
2011-01-13 08:56:30 51°23.18 2°48.664 18.8 20 8.2 100880 53
2011-01-13 08:56:35 51°23.189 2°48.644 14.9 286 8.2 100880 53
2011-01-13 08:56:40 51°23.198 2°48.623 11.4 23 8.2 100880 52
2011-01-13 08:56:45 51°23.207 2°48.602 15.9 283 8.2 100880 52
2011-01-13 08:56:50 51°23.217 2°48.581 12.2 24 8.1 100880 51
2011-01-13 08:56:55 51°23.226 2°48.559 15.7 282 8.1 100880 51
2011-01-13 08:57:00 51°23.236 2°48.539 17 24 8.2 100890 53
2011-01-13 08:57:05 51°23.245 2°48.518 15.7 285 8.2 100890 53
2011-01-13 08:57:10 51°23.254 2°48.496 16.3 23 8.2 100880 52
2011-01-13 08:57:15 51°23.263 2°48.474 14.9 282 8.2 100880 52
2011-01-13 08:57:20 51°23.273 2°48.453 14.4 20 8.2 100860 53
2011-01-13 08:57:25 51°23.282 2°48.431 16.2 282 8.2 100860 53
2011-01-13 08:57:29 51°23.289 2°48.414 15.7 21 8.1 100860 51
2011-01-13 08:57:35 51°23.301 2°48.39 12.8 282 8.1 100860 51
2011-01-13 08:57:40 51°23.31 2°48.371 16.1 22 8.2 100850 52
2011-01-13 08:57:46 51°23.319 2°48.347 14 281 8.2 100850 52
2011-01-13 08:57:50 51°23.325 2°48.33 20.6 24 8.1 100860 53
2011-01-13 08:57:56 51°23.336 2°48.306 17.8 284 8.1 100860 53
2011-01-13 08:58:00 51°23.343 2°48.288 16.2 23 8.1 100870 52
2011-01-13 08:58:05 51°23.353 2°48.267 7.4 280 8.1 100870 52
2011-01-13 08:58:10 51°23.362 2°48.247 18.1 23 8.1 100890 54
2011-01-13 08:58:15 51°23.371 2°48.226 12.4 281 8.1 100890 54
2011-01-13 08:58:20 51°23.38 2°48.204 14.9 26 8.1 100870 50
2011-01-13 08:58:24 51°23.387 2°48.187 19.2 280 8.1 100870 50
2011-01-13 08:58:29 51°23.397 2°48.165 15.7 23 8.1 100890 51
2011-01-13 08:58:34 51°23.406 2°48.143 17.4 284 8.1 100890 51
2011-01-13 08:58:39 51°23.416 2°48.121 16 26 8.2 100850 52
2011-01-13 08:58:44 51°23.425 2°48.099 8.2 280 8.2 100850 52
2011-01-13 08:58:49 51°23.436 2°48.077 8.8 24 8.1 100870 52
2011-01-13 08:58:54 51°23.445 2°48.055 17.1 283 8.1 100870 52
2011-01-13 08:58:58 51°23.454 2°48.038 8.1 24 8.1 100860 53
2011-01-13 08:59:04 51°23.464 2°48.012 18.4 282 8.1 100860 53
2011-01-13 08:59:08 51°23.472 2°47.995 11 25 8.1 100880 54
2011-01-13 08:59:13 51°23.482 2°47.974 8.8 281 8.1 100880 54
2011-01-13 08:59:18 51°23.492 2°47.953 16.1 25 8.1 100880 53
2011-01-13 08:59:23 51°23.501 2°47.932 15.8 282 8.1 100880 53
2011-01-13 08:59:28 51°23.51 2°47.91 20.1 23 8.2 100860 52
2011-01-13 08:59:33 51°23.52 2°47.889 20 283 8.2 100860 52
2011-01-13 08:59:38 51°23.529 2°47.867 20.4 21 8.1 100840 52
2011-01-13 08:59:43 51°23.538 2°47.846 21.8 286 8.1 100840 52
2011-01-13 08:59:48 51°23.547 2°47.824 16.3 20 8.2 100870 52
2011-01-13 08:59:52 51°23.555 2°47.806 14.2 280 8.2 100870 52
2011-01-13 08:59:58 51°23.566 2°47.782 17.1 23 8.2 100890 52
2011-01-13 09:00:04 51°23.579 2°47.759 18.4 283 8.2 100890 52
2011-01-13 09:00:08 51°23.586 2°47.742 15.6 26 8.1 100870 52
2011-01-13 09:00:14 51°23.596 2°47.718 18.1 284 8.1 100870 52
2011-01-13 09:00:18 51°23.604 2°47.701 15.2 23 8.1 100870 52
2011-01-13 09:00:24 51°23.614 2°47.677 8.8 282 8.1 100870 52
2011-01-13 09:00:28 51°23.622 2°47.66 7.5 23 8.1 100880 52
2011-01-13 09:00:33 51°23.631 2°47.639 16.6 284 8.1 100880 52
2011-01-13 09:00:39 51°23.641 2°47.613 17.4 21 8.2 100860 52
2011-01-13 09:00:44 51°23.65 2°47.593 11.7 280 8.2 100860 52
2011-01-13 09:00:48 51°23.658 2°47.576 14.5 23 8.2 100860 52
2011-01-13 09:00:53 51°23.667 2°47.555 19.9 281 8.2 100860 52
2011-01-13 09:00:58 51°23.676 2°47.534 8.3 26 8.1 100910 51
2011-01-13 09:01:03 51°23.685 2°47.512 16.1 282 8.1 100910 51
2011-01-13 09:01:08 51°23.694 2°47.49 16.9 23 8.2 100910 54
2011-01-13 09:01:13 51°23.703 2°47.468 19.8 284 8.2 100910 54
2011-01-13 09:01:18 51°23.712 2°47.446 17 20 8.1 100900 51
2011-01-13 09:01:23 51°23.72 2°47.423 8.2 281 8.1 100900 51
2011-01-13 09:01:28 51°23.729 2°47.401 17 21 8.1 100890 52
2011-01-13 09:01:32 51°23.736 2°47.383 16.9 284 8.1 100890 52
2011-01-13 09:01:37 51°23.745 2°47.36 17.2 23 8.1 100900 53
2011-01-13 09:01:42 51°23.753 2°47.337 17.8 281 8.1 100900 53
2011-01-13 09:01:47 51°23.762 2°47.314 8.9 24 8.1 100890 52
2011-01-13 09:01:52 51°23.77 2°47.291 16.4 284 8.1 100890 52
2011-01-13 09:01:57 51°23.778 2°47.267 14.8 25 8.1 100900 51
2011-01-13 09:02:02 51°23.786 2°47.246 18 283 8.1 100900 51
2011-01-13 09:02:07 51°23.793 2°47.223 15.2 23 8.1 100880 52
2011-01-13 09:02:12 51°23.8 2°47.2 17.9 283 8.1 100880 52
2011-01-13 09:02:17 51°23.807 2°47.177 14.4 22 8.1 100870 53
2011-01-13 09:02:22 51°23.815 2°47.154 17.7 282 8.1 100870 53
2011-01-13 09:02:27 51°23.823 2°47.131 14.8 315 8.1 100900 51
2011-01-13 09:02:32 51°23.831 2°47.108 16.9 284 8.1 100900 51
2011-01-13 09:02:37 51°23.837 2°47.084 22.7 315 8.1 100890 53
2011-01-13 09:02:42 51°23.846 2°47.062 9 279 8.1 100890 53
2011-01-13 09:02:47 51°23.853 2°47.038 17.8 25 8.1 100870 52
2011-01-13 09:02:52 51°23.86 2°47.016 18 285 8.1 100870 52
2011-01-13 09:02:58 51°23.869 2°46.989 15.5 19 8.1 100880 52
2011-01-13 09:03:03 51°23.876 2°46.967 8.9 279 8.1 100880 52
2011-01-13 09:03:08 51°23.883 2°46.945 9 24 8.1 100880 52
2011-01-13 09:03:12 51°23.889 2°46.926 19 282 8.1 100880 52
2011-01-13 09:03:17 51°23.897 2°46.904 15 22 8.2 100850 52
2011-01-13 09:03:22 51°23.904 2°46.881 8.9 279 8.2 100850 52
2011-01-13 09:03:27 51°23.911 2°46.858 8.2 23 8.2 100870 52
2011-01-13 09:03:32 51°23.919 2°46.835 15.6 282 8.2 100870 52
2011-01-13 09:03:36 51°23.926 2°46.816 16.8 22 8.2 100860 50
2011-01-13 09:03:42 51°23.935 2°46.788 18.4 280 8.2 100860 50
2011-01-13 09:03:47 51°23.943 2°46.764 18.6 21 8.2 100890 51
2011-01-13 09:03:52 51°23.95 2°46.74 8.1 280 8.2 100890 51
2011-01-13 09:03:57 51°23.958 2°46.719 19.9 22 8.2 100870 53
2011-01-13 09:04:03 51°23.968 2°46.693 16.8 281 8.2 100870 53
2011-01-13 09:04:08 51°23.976 2°46.674 19 22 8.2 100870 52
2011-01-13 09:04:13 51°23.983 2°46.654 16.3 282 8.2 100870 52
2011-01-13 09:04:19 51°23.992 2°46.628 16.1 24 8.2 100870 53
2011-01-13 09:04:24 51°23.998 2°46.605 18 286 8.2 100870 53
2011-01-13 09:04:28 51°24.005 2°46.589 13.7 24 8.2 100830 52
2011-01-13 09:04:34 51°24.013 2°46.565 15 281 8.2 100830 52
2011-01-13 09:04:39 51°24.021 2°46.544 19.8 24 8.2 100890 52
2011-01-13 09:04:44 51°24.028 2°46.523 17 281 8.2 100890 52
2011-01-13 09:04:50 51°24.036 2°46.497 8.6 22 8.2 100860 52
2011-01-13 09:04:55 51°24.044 2°46.475 15.8 284 8.2 100860 52
2011-01-13 09:05:00 51°24.051 2°46.453 19.4 21 8.2 100860 53
2011-01-13 09:05:04 51°24.057 2°46.434 17.9 284 8.2 100860 53
2011-01-13 09:05:09 51°24.064 2°46.411 16.8 21 8.2 100860 52
2011-01-13 09:05:14 51°24.072 2°46.388 19.7 283 8.2 100860 52
2011-01-13 09:05:19 51°24.079 2°46.364 18.6 21 8.2 100850 53
2011-01-13 09:05:24 51°24.087 2°46.341 17.9 281 8.2 100850 53
2011-01-13 09:05:28 51°24.093 2°46.321 8.1 23 8.2 100870 51
2011-01-13 09:05:33 51°24.102 2°46.298 18.8 286 8.2 100870 51
2011-01-13 09:05:38 51°24.11 2°46.274 18.3 22 8.2 100860 51
2011-01-13 09:05:43 51°24.118 2°46.251 16.4 280 8.2 100860 51
2011-01-13 09:05:48 51°24.126 2°46.228 22 21 8.2 100860 51
2011-01-13 09:05:53 51°24.133 2°46.205 17.9 283 8.2 100860 51
2011-01-13 09:05:58 51°24.142 2°46.182 18.6 22 8.2 100870 53
2011-01-13 09:06:03 51°24.149 2°46.158 21 283 8.2 100870 53
2011-01-13 09:06:07 51°24.156 2°46.139 17.8 22 8.2 100860 52
2011-01-13 09:06:12 51°24.164 2°46.117 12.2 282 8.2 100860 52
2011-01-13 09:06:17 51°24.173 2°46.094 18.4 21 8.2 100860 52
2011-01-13 09:06:22 51°24.18 2°46.071 15.8 281 8.2 100860 52
2011-01-13 09:06:27 51°24.188 2°46.048 16.4 24 8.2 100850 52
2011-01-13 09:06:32 51°24.196 2°46.025 16.8 283 8.2 100850 52
2011-01-13 09:06:37 51°24.204 2°46.002 15.5 23 8.2 100840 53
2011-01-13 09:06:42 51°24.211 2°45.979 21.1 283 8.2 100840 53
2011-01-13 09:06:47 51°24.219 2°45.957 7.9 25 8.2 100870 51
2011-01-13 09:06:52 51°24.227 2°45.934 15.8 286 8.2 100870 51
2011-01-13 09:06:56 51°24.233 2°45.916 8.1 23 8.2 100860 53
2011-01-13 09:07:02 51°24.242 2°45.888 18.5 285 8.2 100860 53
2011-01-13 09:07:07 51°24.25 2°45.864 9.1 25 8.2 100850 51
2011-01-13 09:07:12 51°24.257 2°45.84 21 285 8.2 100850 51
2011-01-13 09:07:16 51°24.264 2°45.822 8.4 23 8.2 100870 52
2011-01-13 09:07:22 51°24.274 2°45.793 16.3 284 8.2 100870 52
2011-01-13 09:07:27 51°24.282 2°45.769 13.2 27 8.2 100870 52
2011-01-13 09:07:32 51°24.29 2°45.746 16.9 284 8.2 100870 52
2011-01-13 09:07:37 51°24.298 2°45.723 9 25 8.2 100870 52
2011-01-13 09:07:42 51°24.306 2°45.7 18.4 -999 8.2 100870 52
2011-01-13 09:07:47 51°24.313 2°45.676 15.5 24 8.2 100890 52
2011-01-13 09:07:52 51°24.321 2°45.654 16 285 8.2 100890 52
2011-01-13 09:07:57 51°24.328 2°45.631 17.4 21 8.2 100840 53
2011-01-13 09:08:02 51°24.335 2°45.608 17.2 282 8.2 100840 53
2011-01-13 09:08:07 51°24.342 2°45.585 19.2 19 8.2 100860 52
2011-01-13 09:08:12 51°24.348 2°45.562 17.2 283 8.2 100860 52
2011-01-13 09:08:18 51°24.354 2°45.535 18.9 22 8.2 100870 52
2011-01-13 09:08:23 51°24.359 2°45.512 9.7 280 8.2 100870 52
2011-01-13 09:08:27 51°24.363 2°45.493 13.6 24 8.2 100890 52
2011-01-13 09:08:32 51°24.369 2°45.469 18.5 284 8.2 100890 52
2011-01-13 09:08:37 51°24.374 2°45.447 17.7 317 8.2 100850 52
2011-01-13 09:08:43 51°24.379 2°45.419 14.9 -999 8.2 100850 52
2011-01-13 09:08:47 51°24.383 2°45.399 16.7 316 8.2 100860 53
2011-01-13 09:08:52 51°24.387 2°45.377 13.2 280 8.2 100860 53
2011-01-13 09:08:58 51°24.392 2°45.352 8.5 320 8.2 100860 51
2011-01-13 09:09:04 51°24.395 2°45.324 19.2 280 8.2 100860 51
2011-01-13 09:09:08 51°24.396 2°45.306 20.2 316 8.2 100870 51
2011-01-13 09:09:13 51°24.4 2°45.284 12.1 283 8.2 100870 51
2011-01-13 09:09:18 51°24.403 2°45.261 20.4 317 8.1 100890 52
2011-01-13 09:09:23 51°24.405 2°45.237 13.9 283 8.1 100890 52
2011-01-13 09:09:28 51°24.407 2°45.213 17.7 320 8.2 100900 51
2011-01-13 09:09:32 51°24.409 2°45.194 8.6 284 8.2 100900 51